LCLK/LCA METAR and TAF weather

Enter ICAO airport designator
Station Type Date Time Source
LCLK METAR 2019/10/23 08:00 UTC NOAA

LCLK 230800Z 03015KT 9999 FEW025 SCT030 27/19 Q1012 NOSIG


Station Type Date Time Source
LCLK Decoded METAR 2019/10/23 08:00 UTC NOAA

Larnaca Airport, Cyprus (LCLK) 34-53N 033-38E 2M
Oct 23, 2019 - 04:00 AM EDT / 2019.10.23 0800 UTC
Wind: from the NNE (030 degrees) at 17 MPH (15 KT):0
Visibility: greater than 7 mile(s):0
Sky conditions: partly cloudy
Temperature: 80 F (27 C)
Dew Point: 66 F (19 C)
Relative Humidity: 61%
Pressure (altimeter): 29.88 in. Hg (1012 hPa)
ob: LCLK 230800Z 03015KT 9999 FEW025 SCT030 27/19 Q1012 NOSIG
cycle: 8

Station Type Date Time Source
LCLK TAF 2019/10/23 06:33 UTC NOAA

TAF TAF LCLK 230530Z 2306/2406 34007KT 9999 FEW025
BECMG 2306/2310 06017KT PROB40
TEMPO 2311/2324 VRB25G35KT 2000 TSRA BKN020CB
BECMG 2315/2319 33007KT

Example: see airport list